Time;durP1;ratioP1;P1;durP2;ratioP2;P2;SDS_P1;SDS_P2;PMS_P1;PMS_P2;Temp;Humidity;BMP_temperature;BMP_pressure;BME280_temperature;BME280_humidity;BME280_pressure;Samples;Min_cycle;Max_cycle;Signal;HPM_P1;HPM_P2
2024/01/10 00:01:14;;;;;;;15.52;13.57;;;;;;;;;;5098542;28;20282;-63
2024/01/10 00:03:42;;;;;;;22.65;14.63;;;;;;;;;;5098508;28;20286;-62
2024/01/10 00:06:11;;;;;;;16.67;14.00;;;;;;;;;;5097561;28;20656;-62
2024/01/10 00:08:39;;;;;;;20.20;14.32;;;;;;;;;;5099514;28;20843;-63
2024/01/10 00:11:08;;;;;;;16.00;12.70;;;;;;;;;;5098221;28;20331;-62
2024/01/10 00:13:37;;;;;;;21.52;14.50;;;;;;;;;;5100003;28;20912;-62
2024/01/10 00:16:06;;;;;;;16.85;13.73;;;;;;;;;;5099553;28;20202;-62
2024/01/10 00:18:34;;;;;;;17.60;14.32;;;;;;;;;;5099884;28;20279;-62
2024/01/10 00:21:02;;;;;;;18.27;13.32;;;;;;;;;;5081251;28;20278;-62
2024/01/10 00:23:31;;;;;;;16.15;13.88;;;;;;;;;;5099324;28;20290;-65
2024/01/10 00:25:59;;;;;;;16.45;13.88;;;;;;;;;;5099249;28;20282;-64
2024/01/10 00:28:27;;;;;;;18.05;13.70;;;;;;;;;;5098849;28;20275;-62
2024/01/10 00:30:57;;;;;;;16.23;14.60;;;;;;;;;;5098780;28;20308;-63
2024/01/10 00:33:25;;;;;;;23.13;14.40;;;;;;;;;;5098915;28;20255;-64
2024/01/10 00:35:53;;;;;;;17.70;13.50;;;;;;;;;;5099094;28;20210;-64
2024/01/10 00:38:21;;;;;;;18.67;14.88;;;;;;;;;;5080227;28;20231;-62
2024/01/10 00:40:49;;;;;;;19.30;15.32;;;;;;;;;;5097602;28;20291;-63
2024/01/10 00:43:18;;;;;;;15.43;13.65;;;;;;;;;;5080519;28;20704;-62
2024/01/10 00:45:46;;;;;;;18.67;14.45;;;;;;;;;;5080863;28;20298;-62
2024/01/10 00:48:17;;;;;;;20.33;14.65;;;;;;;;;;5098500;28;20255;-62
2024/01/10 00:50:45;;;;;;;18.38;15.85;;;;;;;;;;5099016;28;20270;-63
2024/01/10 00:53:14;;;;;;;18.00;15.05;;;;;;;;;;5097983;28;20278;-62
2024/01/10 00:55:42;;;;;;;15.63;14.10;;;;;;;;;;5098547;28;20294;-62
2024/01/10 00:58:10;;;;;;;18.90;14.15;;;;;;;;;;5096481;28;20215;-62
2024/01/10 01:00:38;;;;;;;15.75;14.23;;;;;;;;;;5099151;28;20617;-63
2024/01/10 01:03:08;;;;;;;17.45;13.95;;;;;;;;;;5096806;28;20200;-62
2024/01/10 01:05:37;;;;;;;20.30;14.88;;;;;;;;;;5096857;28;20268;-62
2024/01/10 01:08:06;;;;;;;16.45;14.77;;;;;;;;;;5097852;28;20209;-62
2024/01/10 01:10:35;;;;;;;17.60;14.35;;;;;;;;;;5098534;28;20290;-63
2024/01/10 01:13:03;;;;;;;18.23;14.13;;;;;;;;;;5097194;28;20270;-62
2024/01/10 01:15:31;;;;;;;14.95;13.43;;;;;;;;;;5098813;28;20290;-63
2024/01/10 01:18:00;;;;;;;16.95;13.55;;;;;;;;;;5097714;28;20298;-62
2024/01/10 01:20:28;;;;;;;17.75;14.57;;;;;;;;;;5098890;28;20258;-62
2024/01/10 01:22:58;;;;;;;19.25;15.05;;;;;;;;;;5097763;28;20282;-62
2024/01/10 01:25:26;;;;;;;22.63;16.50;;;;;;;;;;5098718;28;20278;-63
2024/01/10 01:27:54;;;;;;;16.45;13.85;;;;;;;;;;5077795;28;20255;-63
2024/01/10 01:30:22;;;;;;;20.02;15.88;;;;;;;;;;5097947;28;20286;-63
2024/01/10 01:32:51;;;;;;;19.70;15.80;;;;;;;;;;5096897;28;20721;-64
2024/01/10 01:35:21;;;;;;;16.40;13.85;;;;;;;;;;5098217;28;20282;-62
2024/01/10 01:37:49;;;;;;;19.77;14.82;;;;;;;;;;5097598;28;20210;-63
2024/01/10 01:40:19;;;;;;;18.08;15.13;;;;;;;;;;5097876;28;20286;-63
2024/01/10 01:42:47;;;;;;;18.77;14.55;;;;;;;;;;5095627;28;20283;-63
2024/01/10 01:45:16;;;;;;;19.80;15.88;;;;;;;;;;5085499;28;20686;-63
2024/01/10 01:47:44;;;;;;;27.02;15.20;;;;;;;;;;5076897;28;20283;-62
2024/01/10 01:50:12;;;;;;;24.83;16.83;;;;;;;;;;5076813;28;20259;-63
2024/01/10 01:52:41;;;;;;;19.85;14.23;;;;;;;;;;5079271;28;20210;-66
2024/01/10 01:55:09;;;;;;;17.20;15.20;;;;;;;;;;5096836;28;20288;-62
2024/01/10 01:57:39;;;;;;;18.08;15.07;;;;;;;;;;5096951;28;20278;-63
2024/01/10 02:00:12;;;;;;;19.73;15.50;;;;;;;;;;5097593;28;20239;-62
2024/01/10 02:02:41;;;;;;;29.25;14.85;;;;;;;;;;5094508;28;20298;-67
2024/01/10 02:05:09;;;;;;;19.30;14.90;;;;;;;;;;5094955;28;20199;-67
2024/01/10 02:07:38;;;;;;;21.08;16.77;;;;;;;;;;5090279;28;20215;-68
2024/01/10 02:10:06;;;;;;;17.70;14.70;;;;;;;;;;5092024;28;20192;-68
2024/01/10 02:12:35;;;;;;;19.75;15.88;;;;;;;;;;5091496;28;20709;-68
2024/01/10 02:15:04;;;;;;;23.70;15.50;;;;;;;;;;5091491;28;20191;-68
2024/01/10 02:17:33;;;;;;;19.13;14.57;;;;;;;;;;5091634;28;20256;-68
2024/01/10 02:20:09;;;;;;;16.10;14.40;;;;;;;;;;5090756;28;20228;-68
2024/01/10 02:22:37;;;;;;;18.92;14.73;;;;;;;;;;5091668;28;20561;-68
2024/01/10 02:25:08;;;;;;;26.90;18.83;;;;;;;;;;5091799;28;20202;-68
2024/01/10 02:27:37;;;;;;;23.92;17.38;;;;;;;;;;5073961;28;20546;-68
2024/01/10 02:30:06;;;;;;;19.63;15.15;;;;;;;;;;5091510;28;20202;-68
2024/01/10 02:32:35;;;;;;;18.33;15.90;;;;;;;;;;5091593;28;20213;-68
2024/01/10 02:35:03;;;;;;;20.73;15.60;;;;;;;;;;5091488;28;20580;-67
2024/01/10 02:37:31;;;;;;;21.73;15.30;;;;;;;;;;5090557;28;20195;-68
2024/01/10 02:39:59;;;;;;;21.13;16.35;;;;;;;;;;5090813;28;20219;-68
2024/01/10 02:42:30;;;;;;;19.42;15.73;;;;;;;;;;5073276;28;20195;-68
2024/01/10 02:44:58;;;;;;;17.80;15.45;;;;;;;;;;5084736;28;20224;-68
2024/01/10 02:47:26;;;;;;;20.85;17.30;;;;;;;;;;5089432;28;20207;-68
2024/01/10 02:49:54;;;;;;;27.63;17.08;;;;;;;;;;5091019;28;20205;-68
2024/01/10 02:52:22;;;;;;;20.45;16.35;;;;;;;;;;5090738;28;20201;-68
2024/01/10 02:54:51;;;;;;;23.20;16.77;;;;;;;;;;5090772;28;20248;-67
2024/01/10 02:57:19;;;;;;;20.63;15.45;;;;;;;;;;5090777;28;20573;-68
2024/01/10 02:59:48;;;;;;;19.95;15.50;;;;;;;;;;5090865;28;20598;-68
2024/01/10 03:02:17;;;;;;;22.15;16.17;;;;;;;;;;5072688;28;20234;-67
2024/01/10 03:04:45;;;;;;;24.38;17.42;;;;;;;;;;5090196;28;20579;-68
2024/01/10 03:07:13;;;;;;;29.48;17.50;;;;;;;;;;5090253;28;20264;-68
2024/01/10 03:09:42;;;;;;;24.80;16.42;;;;;;;;;;5091365;28;20561;-68
2024/01/10 03:12:12;;;;;;;20.90;17.42;;;;;;;;;;5073614;28;20195;-65
2024/01/10 03:14:40;;;;;;;17.52;14.40;;;;;;;;;;5070859;28;20210;-66
2024/01/10 03:17:10;;;;;;;23.60;16.05;;;;;;;;;;5075921;28;20269;-68
2024/01/10 03:19:42;;;;;;;16.02;14.13;;;;;;;;;;5091258;28;20264;-68
2024/01/10 03:22:11;;;;;;;25.15;14.85;;;;;;;;;;5094061;28;20206;-68
2024/01/10 03:24:39;;;;;;;26.75;17.98;;;;;;;;;;5093913;28;20201;-68
2024/01/10 03:27:07;;;;;;;26.08;17.92;;;;;;;;;;5093693;28;20526;-68
2024/01/10 03:29:35;;;;;;;24.10;16.95;;;;;;;;;;5093839;28;20288;-68
2024/01/10 03:32:04;;;;;;;25.30;17.33;;;;;;;;;;5095112;28;20203;-68
2024/01/10 03:34:33;;;;;;;22.00;17.73;;;;;;;;;;5094186;28;20207;-67
2024/01/10 03:37:02;;;;;;;22.45;16.10;;;;;;;;;;5094438;28;20203;-68
2024/01/10 03:39:30;;;;;;;34.70;14.82;;;;;;;;;;5094200;28;20210;-68
2024/01/10 03:41:58;;;;;;;19.83;16.38;;;;;;;;;;5093736;28;20230;-68
2024/01/10 03:44:28;;;;;;;23.98;16.23;;;;;;;;;;5093771;28;20218;-68
2024/01/10 03:46:56;;;;;;;18.95;15.82;;;;;;;;;;5094038;28;20195;-67
2024/01/10 03:49:25;;;;;;;21.40;15.90;;;;;;;;;;5093936;28;20195;-68
2024/01/10 03:51:55;;;;;;;23.67;15.77;;;;;;;;;;5075574;28;20209;-68
2024/01/10 03:54:23;;;;;;;19.70;16.88;;;;;;;;;;5093974;28;20213;-68
2024/01/10 03:56:51;;;;;;;21.98;16.00;;;;;;;;;;5094315;28;20210;-67
2024/01/10 03:59:19;;;;;;;24.35;17.85;;;;;;;;;;5093769;28;20704;-68
2024/01/10 04:01:48;;;;;;;26.20;16.27;;;;;;;;;;5093841;28;20203;-68
2024/01/10 04:04:16;;;;;;;18.75;15.80;;;;;;;;;;5091591;28;20587;-68
2024/01/10 04:06:44;;;;;;;24.08;16.17;;;;;;;;;;5092412;28;20309;-68
2024/01/10 04:09:14;;;;;;;25.30;17.30;;;;;;;;;;5093321;28;20252;-68
2024/01/10 04:11:42;;;;;;;18.23;14.95;;;;;;;;;;5094101;28;20203;-67
2024/01/10 04:14:10;;;;;;;22.02;15.75;;;;;;;;;;5093320;28;20203;-68
2024/01/10 04:16:38;;;;;;;27.55;17.27;;;;;;;;;;5093820;28;20192;-67
2024/01/10 04:19:07;;;;;;;20.70;14.93;;;;;;;;;;5077810;28;20216;-68
2024/01/10 04:21:35;;;;;;;27.42;17.17;;;;;;;;;;5076622;28;20263;-68
2024/01/10 04:24:03;;;;;;;26.67;16.20;;;;;;;;;;5093655;28;20207;-68
2024/01/10 04:26:33;;;;;;;23.80;18.65;;;;;;;;;;5093602;28;20649;-67
2024/01/10 04:29:01;;;;;;;25.20;18.70;;;;;;;;;;5079075;28;20196;-68
2024/01/10 04:31:29;;;;;;;22.10;16.20;;;;;;;;;;5075367;28;20244;-68
2024/01/10 04:33:57;;;;;;;27.88;18.67;;;;;;;;;;5096766;28;20278;-63
2024/01/10 04:36:25;;;;;;;22.08;15.85;;;;;;;;;;5098702;28;20291;-63
2024/01/10 04:38:54;;;;;;;31.50;18.70;;;;;;;;;;5097674;28;20280;-63
2024/01/10 04:41:22;;;;;;;22.67;16.17;;;;;;;;;;5098867;28;20282;-63
2024/01/10 04:43:52;;;;;;;30.98;17.67;;;;;;;;;;5098704;28;20199;-62
2024/01/10 04:46:20;;;;;;;26.35;17.20;;;;;;;;;;5098816;28;20250;-64
2024/01/10 04:48:49;;;;;;;19.85;14.70;;;;;;;;;;5080394;28;20586;-63
2024/01/10 04:51:17;;;;;;;24.60;16.60;;;;;;;;;;5099741;28;20282;-63
2024/01/10 04:53:45;;;;;;;26.48;15.65;;;;;;;;;;5098351;28;20267;-63
2024/01/10 04:56:14;;;;;;;28.45;17.63;;;;;;;;;;5098228;28;20283;-63
2024/01/10 04:58:42;;;;;;;24.05;16.00;;;;;;;;;;5097433;28;20196;-63
2024/01/10 05:01:10;;;;;;;23.33;17.13;;;;;;;;;;5098567;28;20276;-64
2024/01/10 05:03:39;;;;;;;24.38;16.80;;;;;;;;;;5097278;28;20289;-63
2024/01/10 05:06:07;;;;;;;26.08;16.30;;;;;;;;;;5080539;28;20274;-63
2024/01/10 05:08:35;;;;;;;21.00;16.83;;;;;;;;;;5098290;28;20250;-62
2024/01/10 05:11:03;;;;;;;24.13;18.65;;;;;;;;;;5099009;28;20278;-63
2024/01/10 05:13:31;;;;;;;27.52;17.65;;;;;;;;;;5097719;28;20294;-63
2024/01/10 05:16:00;;;;;;;29.85;17.10;;;;;;;;;;5099262;28;20612;-63
2024/01/10 05:18:29;;;;;;;34.47;17.45;;;;;;;;;;5096912;28;20290;-64
2024/01/10 05:20:57;;;;;;;23.70;16.20;;;;;;;;;;5098630;28;20298;-63
2024/01/10 05:23:25;;;;;;;24.50;15.52;;;;;;;;;;5097146;28;20574;-63
2024/01/10 05:25:54;;;;;;;23.13;16.58;;;;;;;;;;5080017;28;20282;-63
2024/01/10 05:28:22;;;;;;;33.83;19.20;;;;;;;;;;5097329;28;20673;-64
2024/01/10 05:30:50;;;;;;;25.83;16.05;;;;;;;;;;5098162;28;20698;-63
2024/01/10 05:33:19;;;;;;;27.63;17.52;;;;;;;;;;5097598;28;20286;-63
2024/01/10 05:35:48;;;;;;;25.23;17.88;;;;;;;;;;5097997;28;20677;-63
2024/01/10 05:38:17;;;;;;;24.08;15.30;;;;;;;;;;5097214;28;20285;-63
2024/01/10 05:40:45;;;;;;;28.50;17.95;;;;;;;;;;5097698;28;20235;-62
2024/01/10 05:43:13;;;;;;;39.88;18.42;;;;;;;;;;5078395;28;20255;-63
2024/01/10 05:45:41;;;;;;;20.95;15.35;;;;;;;;;;5097705;28;20804;-64
2024/01/10 05:48:09;;;;;;;21.98;14.48;;;;;;;;;;5097886;28;20214;-63
2024/01/10 05:50:39;;;;;;;26.05;15.50;;;;;;;;;;5097912;28;20278;-63
2024/01/10 05:53:08;;;;;;;20.92;14.70;;;;;;;;;;5096399;28;20263;-63
2024/01/10 05:55:36;;;;;;;24.33;14.18;;;;;;;;;;5078999;28;20205;-63
2024/01/10 05:58:05;;;;;;;29.80;17.95;;;;;;;;;;5096658;28;20193;-63
2024/01/10 06:00:33;;;;;;;33.08;17.45;;;;;;;;;;5078638;28;20264;-63
2024/01/10 06:03:01;;;;;;;28.75;16.02;;;;;;;;;;5095697;28;20285;-63
2024/01/10 06:05:31;;;;;;;22.55;15.52;;;;;;;;;;5095695;28;20199;-63
2024/01/10 06:07:59;;;;;;;25.50;17.05;;;;;;;;;;5094079;28;20259;-62
2024/01/10 06:10:29;;;;;;;23.10;14.88;;;;;;;;;;5095233;28;20327;-62
2024/01/10 06:13:00;;;;;;;24.52;16.10;;;;;;;;;;5096723;28;20324;-62
2024/01/10 06:15:28;;;;;;;31.33;17.50;;;;;;;;;;5096247;28;20191;-62
2024/01/10 06:17:56;;;;;;;24.40;15.63;;;;;;;;;;5096174;28;20258;-62
2024/01/10 06:20:24;;;;;;;26.45;17.77;;;;;;;;;;5078136;28;20225;-63
2024/01/10 06:22:53;;;;;;;23.55;18.13;;;;;;;;;;5095729;28;20278;-64
2024/01/10 06:25:21;;;;;;;22.95;16.20;;;;;;;;;;5095318;28;20220;-62
2024/01/10 06:27:50;;;;;;;27.25;17.75;;;;;;;;;;5096908;28;20286;-63
2024/01/10 06:30:19;;;;;;;26.83;17.02;;;;;;;;;;5096383;28;20274;-63
2024/01/10 06:32:47;;;;;;;26.05;17.85;;;;;;;;;;5079885;28;20199;-64
2024/01/10 06:35:15;;;;;;;27.55;16.92;;;;;;;;;;5098012;28;20263;-63
2024/01/10 06:37:44;;;;;;;27.73;16.30;;;;;;;;;;5096536;28;20290;-63
2024/01/10 06:40:13;;;;;;;29.20;16.42;;;;;;;;;;5095088;28;20231;-63
2024/01/10 06:42:41;;;;;;;28.20;18.63;;;;;;;;;;5096014;28;20293;-63
2024/01/10 06:45:12;;;;;;;32.05;17.15;;;;;;;;;;5088195;28;20222;-63
2024/01/10 06:47:40;;;;;;;26.63;16.75;;;;;;;;;;5097244;28;20251;-62
2024/01/10 06:50:08;;;;;;;30.45;17.85;;;;;;;;;;5095349;28;20251;-63
2024/01/10 06:52:37;;;;;;;32.60;17.67;;;;;;;;;;5076459;28;20278;-63
2024/01/10 06:55:05;;;;;;;24.75;16.08;;;;;;;;;;5094084;28;20697;-63
2024/01/10 06:57:34;;;;;;;26.05;16.63;;;;;;;;;;5096058;28;20203;-63
2024/01/10 07:00:06;;;;;;;29.30;19.48;;;;;;;;;;5095437;28;20710;-63
2024/01/10 07:02:36;;;;;;;30.40;19.58;;;;;;;;;;5094984;28;20269;-63
2024/01/10 07:05:05;;;;;;;22.38;16.67;;;;;;;;;;5094704;28;20659;-64
2024/01/10 07:07:35;;;;;;;25.10;17.48;;;;;;;;;;5095660;28;20198;-63
2024/01/10 07:10:04;;;;;;;26.65;17.15;;;;;;;;;;5094381;28;20195;-64
2024/01/10 07:12:32;;;;;;;20.95;13.65;;;;;;;;;;5095389;28;20869;-63
2024/01/10 07:15:02;;;;;;;24.10;16.92;;;;;;;;;;5095727;28;20263;-63
2024/01/10 07:17:31;;;;;;;28.52;15.20;;;;;;;;;;5095949;28;20214;-64
2024/01/10 07:20:00;;;;;;;29.20;19.02;;;;;;;;;;5095611;28;20203;-63
2024/01/10 07:22:28;;;;;;;29.33;17.65;;;;;;;;;;5094537;28;20199;-64
2024/01/10 07:24:58;;;;;;;33.25;17.25;;;;;;;;;;5095098;28;20199;-64
2024/01/10 07:27:26;;;;;;;24.95;17.00;;;;;;;;;;5071432;28;20201;-64
2024/01/10 07:29:54;;;;;;;33.30;18.20;;;;;;;;;;5094520;28;20199;-63
2024/01/10 07:32:22;;;;;;;35.67;19.80;;;;;;;;;;5095587;28;20199;-63
2024/01/10 07:34:50;;;;;;;28.85;17.73;;;;;;;;;;5094884;28;20200;-65
2024/01/10 07:37:22;;;;;;;30.80;18.75;;;;;;;;;;5097098;28;20199;-63
2024/01/10 07:39:51;;;;;;;30.40;19.20;;;;;;;;;;5077943;28;20721;-64
2024/01/10 07:42:19;;;;;;;24.75;18.38;;;;;;;;;;5095574;28;20207;-64
2024/01/10 07:44:47;;;;;;;32.63;19.58;;;;;;;;;;5075671;28;20227;-64
2024/01/10 07:47:15;;;;;;;33.95;19.73;;;;;;;;;;5095106;28;20214;-64
2024/01/10 07:49:44;;;;;;;29.00;18.67;;;;;;;;;;5094063;28;20207;-64
2024/01/10 07:52:12;;;;;;;25.77;18.38;;;;;;;;;;5077208;28;20195;-64
2024/01/10 07:54:42;;;;;;;30.42;18.27;;;;;;;;;;5094557;28;20211;-64
2024/01/10 07:57:11;;;;;;;26.85;20.10;;;;;;;;;;5094219;28;20232;-64
2024/01/10 07:59:39;;;;;;;35.25;20.40;;;;;;;;;;5094679;28;20627;-64
2024/01/10 08:02:07;;;;;;;30.30;18.95;;;;;;;;;;5094078;28;20211;-64
2024/01/10 08:04:35;;;;;;;33.70;19.77;;;;;;;;;;5093651;28;20207;-64
2024/01/10 08:07:04;;;;;;;26.13;19.05;;;;;;;;;;5092965;28;20248;-64
2024/01/10 08:09:32;;;;;;;29.85;18.15;;;;;;;;;;5094438;28;20199;-65
2024/01/10 08:12:01;;;;;;;29.10;19.00;;;;;;;;;;5094242;28;20207;-64
2024/01/10 08:14:29;;;;;;;29.58;19.90;;;;;;;;;;5094116;28;20214;-63
2024/01/10 08:16:58;;;;;;;28.60;18.52;;;;;;;;;;5076412;28;20264;-64
2024/01/10 08:19:26;;;;;;;25.55;19.50;;;;;;;;;;5094120;28;20213;-64
2024/01/10 08:21:55;;;;;;;29.58;19.90;;;;;;;;;;5093905;28;20226;-64
2024/01/10 08:24:23;;;;;;;28.70;19.67;;;;;;;;;;5094049;28;20195;-64
2024/01/10 08:26:51;;;;;;;29.60;19.48;;;;;;;;;;5094480;28;20207;-64
2024/01/10 08:29:21;;;;;;;29.20;18.50;;;;;;;;;;5093510;28;20195;-64
2024/01/10 08:31:49;;;;;;;28.60;18.90;;;;;;;;;;5077362;28;20199;-64
2024/01/10 08:34:18;;;;;;;31.92;21.30;;;;;;;;;;5073840;28;20692;-64
2024/01/10 08:36:50;;;;;;;33.00;21.58;;;;;;;;;;5085916;28;20573;-63
2024/01/10 08:39:18;;;;;;;37.15;21.10;;;;;;;;;;5094184;28;20202;-64
2024/01/10 08:41:47;;;;;;;31.80;19.35;;;;;;;;;;5094541;28;20569;-64
2024/01/10 08:44:15;;;;;;;28.77;20.98;;;;;;;;;;5093494;28;20238;-64
2024/01/10 08:46:45;;;;;;;32.45;21.33;;;;;;;;;;5093554;28;20207;-65
2024/01/10 08:49:13;;;;;;;39.83;25.60;;;;;;;;;;5093126;28;20707;-65
2024/01/10 08:51:43;;;;;;;37.70;23.50;;;;;;;;;;5093971;28;20199;-64
2024/01/10 08:54:12;;;;;;;31.75;22.13;;;;;;;;;;5093484;28;20207;-65
2024/01/10 08:56:40;;;;;;;37.20;23.30;;;;;;;;;;5093861;28;20578;-66
2024/01/10 08:59:09;;;;;;;39.08;20.20;;;;;;;;;;5094257;28;20199;-64
2024/01/10 09:01:38;;;;;;;30.60;20.48;;;;;;;;;;5093419;28;20215;-64
2024/01/10 09:04:08;;;;;;;32.45;20.38;;;;;;;;;;5093075;28;20211;-65
2024/01/10 09:06:36;;;;;;;33.08;20.23;;;;;;;;;;5093270;28;20606;-65
2024/01/10 09:09:04;;;;;;;30.77;19.92;;;;;;;;;;5094079;28;20203;-65
2024/01/10 09:11:33;;;;;;;33.25;21.00;;;;;;;;;;5094123;28;20191;-65
2024/01/10 09:14:01;;;;;;;33.08;21.95;;;;;;;;;;5093431;28;20590;-64
2024/01/10 09:16:29;;;;;;;33.85;20.60;;;;;;;;;;5093590;28;20748;-64
2024/01/10 09:18:57;;;;;;;29.25;19.77;;;;;;;;;;5092912;28;20203;-65
2024/01/10 09:21:27;;;;;;;35.03;20.25;;;;;;;;;;5093172;28;20215;-65
2024/01/10 09:23:56;;;;;;;31.00;21.60;;;;;;;;;;5093908;28;20207;-64
2024/01/10 09:26:24;;;;;;;29.05;20.70;;;;;;;;;;5094135;28;20203;-63
2024/01/10 09:28:52;;;;;;;28.38;22.35;;;;;;;;;;5093918;28;20219;-63
2024/01/10 09:31:21;;;;;;;27.17;20.67;;;;;;;;;;5094454;28;20734;-64
2024/01/10 09:33:49;;;;;;;29.48;20.17;;;;;;;;;;5093867;28;20213;-63
2024/01/10 09:36:17;;;;;;;34.63;22.58;;;;;;;;;;5093938;28;20578;-64
2024/01/10 09:38:47;;;;;;;29.35;22.80;;;;;;;;;;5094105;28;20658;-65
2024/01/10 09:41:16;;;;;;;35.20;23.23;;;;;;;;;;5091984;28;20234;-63
2024/01/10 09:43:45;;;;;;;30.45;22.83;;;;;;;;;;5093203;28;20199;-64
2024/01/10 09:46:13;;;;;;;33.47;20.73;;;;;;;;;;5092845;28;20207;-64
2024/01/10 09:48:41;;;;;;;29.98;20.27;;;;;;;;;;5092828;28;20205;-65
2024/01/10 09:51:10;;;;;;;26.33;20.23;;;;;;;;;;5092991;28;20199;-64
2024/01/10 09:53:39;;;;;;;27.05;20.10;;;;;;;;;;5092923;28;20203;-63
2024/01/10 09:56:10;;;;;;;23.70;20.65;;;;;;;;;;5093268;28;20541;-63
2024/01/10 09:58:40;;;;;;;28.30;21.00;;;;;;;;;;5093706;28;20183;-63
2024/01/10 10:01:08;;;;;;;39.33;19.67;;;;;;;;;;5092061;28;20191;-63
2024/01/10 10:03:39;;;;;;;25.00;21.10;;;;;;;;;;5091576;28;20214;-64
2024/01/10 10:06:10;;;;;;;30.83;20.85;;;;;;;;;;5073191;28;20188;-64
2024/01/10 10:08:39;;;;;;;33.63;22.38;;;;;;;;;;5091917;28;20187;-64
2024/01/10 10:11:13;;;;;;;31.52;21.55;;;;;;;;;;5089634;28;20195;-63
2024/01/10 10:13:41;;;;;;;27.65;23.15;;;;;;;;;;5092443;28;20198;-65
2024/01/10 10:16:12;;;;;;;32.38;21.35;;;;;;;;;;5093138;28;20203;-64
2024/01/10 10:18:42;;;;;;;28.95;21.67;;;;;;;;;;5093001;28;20187;-65
2024/01/10 10:21:11;;;;;;;27.55;21.65;;;;;;;;;;5092697;28;20205;-64
2024/01/10 10:23:40;;;;;;;25.65;21.38;;;;;;;;;;5092606;28;20271;-65
2024/01/10 10:26:19;;;;;;;25.73;22.02;;;;;;;;;;5073312;28;20749;-64
2024/01/10 10:28:47;;;;;;;26.15;21.52;;;;;;;;;;5073982;28;20664;-63
2024/01/10 10:31:16;;;;;;;27.13;22.48;;;;;;;;;;5093622;28;20753;-65
2024/01/10 10:33:44;;;;;;;25.98;20.02;;;;;;;;;;5091852;28;20199;-63
2024/01/10 10:36:12;;;;;;;32.03;24.35;;;;;;;;;;5090808;28;20205;-64
2024/01/10 10:38:40;;;;;;;27.48;22.52;;;;;;;;;;5092212;28;20209;-64
2024/01/10 10:41:10;;;;;;;29.90;21.73;;;;;;;;;;5091494;28;20235;-64
2024/01/10 10:43:40;;;;;;;24.10;19.55;;;;;;;;;;5088982;28;20223;-64
2024/01/10 10:46:09;;;;;;;25.33;21.40;;;;;;;;;;5084899;28;20597;-64
2024/01/10 10:48:37;;;;;;;27.75;22.35;;;;;;;;;;5092391;28;20199;-64
2024/01/10 10:51:07;;;;;;;29.23;23.88;;;;;;;;;;5090422;28;20667;-64
2024/01/10 10:53:36;;;;;;;33.05;24.38;;;;;;;;;;5091189;28;20195;-64
2024/01/10 10:56:05;;;;;;;33.47;23.17;;;;;;;;;;5052285;28;20215;-63
2024/01/10 10:58:35;;;;;;;35.65;25.00;;;;;;;;;;5072373;28;20214;-64
2024/01/10 11:01:06;;;;;;;28.67;23.15;;;;;;;;;;5070586;28;20211;-63
2024/01/10 11:03:36;;;;;;;29.70;24.15;;;;;;;;;;5076716;28;20210;-64
2024/01/10 11:06:05;;;;;;;31.77;23.33;;;;;;;;;;5071447;28;20202;-64
2024/01/10 11:08:35;;;;;;;31.45;24.65;;;;;;;;;;5092358;28;20734;-64
2024/01/10 11:11:05;;;;;;;31.60;24.08;;;;;;;;;;5092195;28;20198;-64
2024/01/10 11:13:41;;;;;;;31.25;25.17;;;;;;;;;;5091765;28;20786;-64
2024/01/10 11:16:30;;;;;;;28.85;23.75;;;;;;;;;;5091399;28;20191;-64
2024/01/10 11:19:13;;;;;;;29.73;24.02;;;;;;;;;;5084764;28;20199;-64
2024/01/10 11:21:49;;;;;;;27.33;24.73;;;;;;;;;;5085927;28;20195;-63
2024/01/10 11:24:18;;;;;;;27.17;24.38;;;;;;;;;;5090627;28;20556;-62
2024/01/10 11:26:46;;;;;;;30.25;23.35;;;;;;;;;;5090904;28;20263;-63
2024/01/10 11:29:17;;;;;;;30.67;24.35;;;;;;;;;;5090148;28;20195;-63
2024/01/10 11:31:52;;;;;;;26.73;24.13;;;;;;;;;;5088531;28;20538;-63
2024/01/10 11:34:24;;;;;;;28.02;24.02;;;;;;;;;;5087299;28;20244;-63
2024/01/10 11:37:07;;;;;;;26.50;23.95;;;;;;;;;;5090383;28;20188;-62
2024/01/10 11:39:37;;;;;;;25.70;23.25;;;;;;;;;;5088290;28;20199;-63
2024/01/10 11:42:05;;;;;;;27.45;24.85;;;;;;;;;;5091330;28;20227;-62
2024/01/10 11:44:36;;;;;;;27.48;24.83;;;;;;;;;;5093598;28;20211;-66
2024/01/10 11:47:05;;;;;;;28.05;25.02;;;;;;;;;;5092046;28;20203;-66
2024/01/10 11:49:35;;;;;;;28.77;25.88;;;;;;;;;;5092895;28;20199;-66
2024/01/10 11:52:03;;;;;;;27.70;24.90;;;;;;;;;;5092937;28;20203;-65
2024/01/10 11:54:38;;;;;;;32.17;26.80;;;;;;;;;;5089722;28;20199;-65
2024/01/10 11:57:09;;;;;;;33.22;27.00;;;;;;;;;;5093877;28;20260;-65
2024/01/10 11:59:38;;;;;;;28.60;25.63;;;;;;;;;;5094343;28;20191;-66
2024/01/10 12:02:07;;;;;;;30.52;26.00;;;;;;;;;;5089725;28;20217;-65
2024/01/10 12:04:36;;;;;;;31.65;27.20;;;;;;;;;;5090982;28;20219;-65
2024/01/10 12:07:06;;;;;;;28.40;25.38;;;;;;;;;;5091883;28;20205;-65
2024/01/10 12:09:34;;;;;;;28.52;25.65;;;;;;;;;;5092071;28;20267;-65
2024/01/10 12:12:02;;;;;;;27.48;24.67;;;;;;;;;;5091581;28;20580;-65
2024/01/10 12:14:31;;;;;;;29.13;25.10;;;;;;;;;;5089962;28;20205;-65
2024/01/10 12:16:59;;;;;;;29.70;26.70;;;;;;;;;;5090541;28;20203;-67
2024/01/10 12:19:27;;;;;;;27.77;24.88;;;;;;;;;;5073715;28;20195;-67
2024/01/10 12:21:57;;;;;;;31.67;25.80;;;;;;;;;;5092602;28;20658;-66
2024/01/10 12:24:25;;;;;;;30.35;27.27;;;;;;;;;;5090989;28;20233;-66
2024/01/10 12:26:54;;;;;;;31.05;25.17;;;;;;;;;;5087567;28;20199;-67
2024/01/10 12:29:22;;;;;;;30.15;27.15;;;;;;;;;;5091812;28;20205;-66
2024/01/10 12:31:50;;;;;;;28.60;25.85;;;;;;;;;;5073921;28;20199;-66
2024/01/10 12:34:19;;;;;;;34.67;28.10;;;;;;;;;;5090776;28;20203;-66
2024/01/10 12:36:47;;;;;;;27.48;25.05;;;;;;;;;;5092217;28;20203;-66
2024/01/10 12:39:17;;;;;;;28.77;25.30;;;;;;;;;;5089577;28;20205;-67
2024/01/10 12:41:45;;;;;;;29.17;26.27;;;;;;;;;;5087880;28;20236;-66
2024/01/10 12:44:13;;;;;;;27.63;24.73;;;;;;;;;;5082877;28;20226;-67
2024/01/10 12:46:52;;;;;;;30.55;27.65;;;;;;;;;;5085779;28;21155;-71
2024/01/10 12:49:20;;;;;;;30.60;27.30;;;;;;;;;;5071563;28;20211;-68
2024/01/10 12:51:49;;;;;;;30.80;27.50;;;;;;;;;;5091685;28;20210;-72
2024/01/10 12:54:19;;;;;;;28.17;25.17;;;;;;;;;;5091434;28;20202;-69
2024/01/10 12:56:47;;;;;;;29.02;26.13;;;;;;;;;;5092038;28;20195;-69
2024/01/10 12:59:15;;;;;;;28.30;25.50;;;;;;;;;;5091115;28;20203;-69
2024/01/10 13:01:43;;;;;;;29.55;25.75;;;;;;;;;;5091693;28;20209;-69
2024/01/10 13:04:12;;;;;;;27.65;25.05;;;;;;;;;;5091003;28;20223;-69
2024/01/10 13:06:41;;;;;;;29.15;26.00;;;;;;;;;;5072970;28;20207;-68
2024/01/10 13:09:09;;;;;;;27.48;24.77;;;;;;;;;;5092279;28;20191;-68
2024/01/10 13:11:39;;;;;;;28.10;25.30;;;;;;;;;;5092374;28;20210;-69
2024/01/10 13:14:07;;;;;;;28.42;25.50;;;;;;;;;;5091932;28;20244;-69
2024/01/10 13:16:35;;;;;;;28.50;25.70;;;;;;;;;;5091666;28;20187;-68
2024/01/10 13:19:03;;;;;;;30.73;27.58;;;;;;;;;;5089373;28;20199;-70
2024/01/10 13:21:31;;;;;;;29.48;25.73;;;;;;;;;;5072559;28;20251;-68
2024/01/10 13:23:59;;;;;;;31.35;27.98;;;;;;;;;;5090702;28;20211;-68
2024/01/10 13:26:28;;;;;;;31.13;27.52;;;;;;;;;;5091035;28;20248;-69
2024/01/10 13:28:57;;;;;;;29.30;25.90;;;;;;;;;;5090160;28;20208;-68
2024/01/10 13:31:25;;;;;;;30.02;26.90;;;;;;;;;;5088600;28;20203;-68
2024/01/10 13:33:54;;;;;;;31.35;27.98;;;;;;;;;;5065952;28;20531;-68
2024/01/10 13:36:22;;;;;;;29.88;26.65;;;;;;;;;;5091543;28;20226;-68
2024/01/10 13:38:50;;;;;;;31.80;28.27;;;;;;;;;;5073007;28;20216;-68
2024/01/10 13:41:18;;;;;;;29.25;26.25;;;;;;;;;;5056958;28;20291;-68
2024/01/10 13:43:47;;;;;;;28.48;25.60;;;;;;;;;;5087968;28;20748;-68
2024/01/10 13:46:16;;;;;;;27.60;24.73;;;;;;;;;;5089573;28;20213;-68
2024/01/10 13:48:45;;;;;;;34.67;27.95;;;;;;;;;;5090486;28;20205;-68
2024/01/10 13:51:13;;;;;;;34.70;27.50;;;;;;;;;;5091890;28;20576;-68
2024/01/10 13:53:41;;;;;;;29.95;26.00;;;;;;;;;;5090057;28;20195;-68
2024/01/10 13:56:11;;;;;;;31.52;26.20;;;;;;;;;;5091436;28;20196;-68
2024/01/10 13:58:39;;;;;;;36.22;28.90;;;;;;;;;;5089948;28;20649;-69
2024/01/10 14:01:08;;;;;;;28.90;25.23;;;;;;;;;;5091236;28;20205;-69
2024/01/10 14:03:37;;;;;;;33.45;26.65;;;;;;;;;;5089489;28;20225;-69
2024/01/10 14:06:06;;;;;;;28.95;25.83;;;;;;;;;;5090283;28;20199;-69
2024/01/10 14:08:37;;;;;;;32.42;25.55;;;;;;;;;;5087688;28;20256;-69
2024/01/10 14:11:06;;;;;;;32.63;26.45;;;;;;;;;;5090902;28;20183;-69
2024/01/10 14:13:35;;;;;;;31.23;25.67;;;;;;;;;;5090210;28;20195;-69
2024/01/10 14:16:03;;;;;;;35.75;25.25;;;;;;;;;;5090748;28;20203;-69
2024/01/10 14:18:31;;;;;;;27.77;24.85;;;;;;;;;;5089358;28;20195;-69
2024/01/10 14:21:01;;;;;;;31.52;26.80;;;;;;;;;;5091082;28;20195;-69
2024/01/10 14:23:29;;;;;;;32.60;25.27;;;;;;;;;;5089927;28;20259;-69
2024/01/10 14:25:57;;;;;;;27.05;24.35;;;;;;;;;;5091510;28;20199;-69